createdAt,value
2018-11-07T00:00:55.244Z,11.80
2018-11-07T00:03:23.874Z,11.70
2018-11-07T00:05:52.478Z,11.60
2018-11-07T00:08:21.158Z,11.70
2018-11-07T00:10:49.635Z,11.80
2018-11-07T00:13:18.196Z,11.70
2018-11-07T00:15:46.842Z,11.70
2018-11-07T00:18:15.541Z,11.60
2018-11-07T00:20:44.273Z,11.80
2018-11-07T00:23:12.883Z,11.80
2018-11-07T00:25:41.565Z,11.70
2018-11-07T00:28:10.197Z,11.60
2018-11-07T00:30:38.766Z,11.70
2018-11-07T00:33:07.394Z,11.70
2018-11-07T00:35:36.048Z,11.90
2018-11-07T00:38:04.931Z,11.80
2018-11-07T00:40:33.611Z,11.70
2018-11-07T00:43:02.169Z,11.90
2018-11-07T00:45:30.847Z,11.80
2018-11-07T00:47:59.447Z,11.80
2018-11-07T00:50:28.079Z,11.90
2018-11-07T00:52:56.705Z,11.80
2018-11-07T00:55:25.260Z,11.90
2018-11-07T00:57:53.918Z,11.70
2018-11-07T01:00:22.657Z,12.00
2018-11-07T01:02:51.220Z,12.20
2018-11-07T01:05:19.903Z,12.20
2018-11-07T01:07:48.933Z,12.10
2018-11-07T01:10:17.555Z,12.10
2018-11-07T01:12:46.094Z,11.90
2018-11-07T01:15:14.788Z,11.80
2018-11-07T01:17:43.456Z,11.70
2018-11-07T01:20:13.243Z,11.80
2018-11-07T01:22:41.850Z,11.80
2018-11-07T01:25:10.431Z,11.70
2018-11-07T01:27:39.008Z,11.80
2018-11-07T01:30:10.430Z,11.80
2018-11-07T01:32:39.102Z,11.90
2018-11-07T01:35:07.761Z,11.80
2018-11-07T01:37:36.317Z,11.80
2018-11-07T01:40:08.177Z,11.60
2018-11-07T01:42:36.760Z,11.60
2018-11-07T01:45:06.202Z,11.40
2018-11-07T01:47:34.793Z,11.30
2018-11-07T01:50:03.463Z,11.10
2018-11-07T01:52:32.003Z,11.00
2018-11-07T01:55:00.601Z,10.90
2018-11-07T01:57:29.201Z,10.90
2018-11-07T01:59:57.786Z,10.80
2018-11-07T02:02:26.391Z,10.90
2018-11-07T02:04:54.948Z,10.90
2018-11-07T02:07:23.591Z,10.80
2018-11-07T02:09:52.038Z,10.80
2018-11-07T02:12:20.472Z,10.80
2018-11-07T02:14:48.854Z,11.10
2018-11-07T02:17:17.228Z,11.40
2018-11-07T02:19:45.734Z,11.60
2018-11-07T02:22:14.207Z,11.50
2018-11-07T02:24:42.643Z,11.40
2018-11-07T02:27:11.080Z,11.50
2018-11-07T02:29:39.722Z,11.60
2018-11-07T02:32:08.154Z,11.30
2018-11-07T02:34:36.622Z,11.30
2018-11-07T02:37:05.387Z,11.20
2018-11-07T02:39:33.801Z,11.30
2018-11-07T02:42:02.606Z,11.40
2018-11-07T02:44:30.970Z,11.50
2018-11-07T02:46:59.323Z,11.30
2018-11-07T02:49:27.836Z,11.40
2018-11-07T02:51:56.353Z,11.40
2018-11-07T02:54:24.791Z,11.20
2018-11-07T02:56:53.313Z,11.20
2018-11-07T02:59:21.797Z,11.10
2018-11-07T03:01:50.351Z,11.00
2018-11-07T03:04:18.756Z,11.00
2018-11-07T03:06:47.283Z,10.90
2018-11-07T03:09:15.763Z,10.80
2018-11-07T03:11:44.215Z,10.90
2018-11-07T03:14:12.662Z,10.90
2018-11-07T03:16:41.039Z,10.80
2018-11-07T03:19:09.450Z,10.70
2018-11-07T03:21:37.855Z,10.60
2018-11-07T03:24:06.309Z,10.70
2018-11-07T03:26:34.803Z,10.80
2018-11-07T03:29:03.258Z,10.80
2018-11-07T03:31:31.705Z,10.70
2018-11-07T03:34:00.225Z,10.60
2018-11-07T03:36:28.714Z,10.60
2018-11-07T03:38:57.235Z,10.60
2018-11-07T03:41:25.684Z,10.60
2018-11-07T03:43:54.020Z,10.70
2018-11-07T03:46:22.764Z,10.80
2018-11-07T03:48:51.230Z,10.80
2018-11-07T03:51:19.723Z,10.90
2018-11-07T03:53:48.200Z,10.80
2018-11-07T03:56:16.696Z,10.90
2018-11-07T03:58:45.178Z,11.00
2018-11-07T04:01:13.647Z,10.70
2018-11-07T04:03:42.143Z,10.50
2018-11-07T04:06:10.552Z,10.40
2018-11-07T04:08:38.957Z,10.40
2018-11-07T04:11:07.455Z,10.40
2018-11-07T04:13:35.975Z,10.40
2018-11-07T04:16:04.470Z,10.40
2018-11-07T04:18:32.967Z,10.60
2018-11-07T04:21:01.392Z,10.50
2018-11-07T04:23:29.850Z,10.70
2018-11-07T04:25:58.332Z,10.50
2018-11-07T04:28:26.721Z,10.50
2018-11-07T04:30:55.179Z,10.40
2018-11-07T04:33:23.732Z,10.40
2018-11-07T04:35:52.059Z,10.40
2018-11-07T04:38:20.533Z,10.50
2018-11-07T04:40:49.073Z,10.30
2018-11-07T04:43:17.488Z,10.50
2018-11-07T04:45:45.980Z,10.40
2018-11-07T04:48:14.484Z,10.30
2018-11-07T04:50:42.942Z,10.30
2018-11-07T04:53:11.407Z,10.20
2018-11-07T04:55:39.910Z,10.10
2018-11-07T04:58:13.353Z,10.40
2018-11-07T05:00:41.876Z,10.50
2018-11-07T05:03:10.469Z,10.60
2018-11-07T05:05:39.016Z,10.60
2018-11-07T05:08:07.532Z,10.40
2018-11-07T05:10:36.019Z,10.40
2018-11-07T05:13:04.500Z,10.20
2018-11-07T05:15:33.035Z,10.20
2018-11-07T05:18:01.573Z,10.20
2018-11-07T05:20:30.006Z,10.20
2018-11-07T05:22:58.611Z,10.10
2018-11-07T05:25:27.180Z,10.00
2018-11-07T05:27:56.286Z,10.20
2018-11-07T05:30:29.940Z,10.20
2018-11-07T05:32:58.439Z,10.10
2018-11-07T05:35:26.883Z,10.10
2018-11-07T05:37:55.322Z,10.20
2018-11-07T05:40:23.877Z,10.20
2018-11-07T05:42:52.304Z,10.10
2018-11-07T05:45:21.009Z,10.00
2018-11-07T05:47:49.508Z,10.10
2018-11-07T05:50:17.977Z,10.00
2018-11-07T05:52:46.529Z,10.40
2018-11-07T05:55:14.940Z,10.10
2018-11-07T05:57:43.418Z,9.80
2018-11-07T06:00:12.563Z,9.50
2018-11-07T06:02:41.380Z,9.30
2018-11-07T06:05:10.999Z,9.10
2018-11-07T06:07:40.118Z,9.00
2018-11-07T06:10:10.952Z,8.90
2018-11-07T06:12:39.544Z,8.90
2018-11-07T06:15:08.938Z,8.90
2018-11-07T06:17:37.576Z,8.90
2018-11-07T06:20:06.751Z,8.80
2018-11-07T06:22:35.242Z,8.80
2018-11-07T06:25:03.916Z,8.80
2018-11-07T06:27:33.078Z,8.80
2018-11-07T06:30:01.543Z,8.80
2018-11-07T06:32:30.119Z,8.80
2018-11-07T06:34:58.603Z,8.80
2018-11-07T06:37:27.156Z,8.80
2018-11-07T06:39:55.698Z,8.90
2018-11-07T06:42:24.178Z,8.90
2018-11-07T06:44:53.101Z,8.90
2018-11-07T06:47:21.541Z,9.00
2018-11-07T06:49:50.094Z,9.00
2018-11-07T06:52:18.556Z,9.00
2018-11-07T06:54:46.999Z,9.10
2018-11-07T06:57:15.488Z,9.10
2018-11-07T06:59:44.006Z,9.10
2018-11-07T07:02:12.493Z,9.20
2018-11-07T07:04:40.928Z,9.20
2018-11-07T07:07:09.445Z,9.30
2018-11-07T07:09:37.876Z,9.30
2018-11-07T07:12:06.371Z,9.30
2018-11-07T07:14:34.836Z,9.40
2018-11-07T07:17:03.400Z,9.40
2018-11-07T07:19:31.869Z,9.40
2018-11-07T07:22:00.331Z,9.40
2018-11-07T07:24:28.874Z,9.50
2018-11-07T07:26:57.295Z,9.50
2018-11-07T07:29:25.728Z,9.60
2018-11-07T07:31:54.252Z,9.60
2018-11-07T07:34:22.782Z,9.70
2018-11-07T07:36:51.296Z,9.80
2018-11-07T07:39:19.779Z,9.90
2018-11-07T07:41:48.361Z,10.00
2018-11-07T07:44:16.791Z,10.10
2018-11-07T07:46:45.255Z,10.20
2018-11-07T07:49:13.869Z,10.20
2018-11-07T07:51:42.383Z,10.30
2018-11-07T07:54:10.741Z,10.40
2018-11-07T07:56:39.035Z,10.50
2018-11-07T07:59:07.614Z,10.50
2018-11-07T08:01:35.995Z,10.50
2018-11-07T08:04:04.518Z,10.50
2018-11-07T08:06:35.686Z,10.60
2018-11-07T08:09:05.463Z,10.60
2018-11-07T08:11:33.843Z,10.70
2018-11-07T08:14:02.596Z,10.70
2018-11-07T08:16:30.962Z,10.80
2018-11-07T08:18:59.539Z,10.90
2018-11-07T08:21:28.004Z,11.00
2018-11-07T08:23:56.455Z,11.00
2018-11-07T08:26:24.832Z,11.10
2018-11-07T08:28:53.245Z,11.10
2018-11-07T08:31:21.675Z,11.20
2018-11-07T08:33:50.043Z,11.30
2018-11-07T08:36:18.656Z,11.40
2018-11-07T08:38:47.250Z,11.50
2018-11-07T08:41:15.875Z,11.50
2018-11-07T08:43:44.547Z,11.60
2018-11-07T08:46:13.166Z,11.70
2018-11-07T08:48:41.736Z,11.80
2018-11-07T08:51:10.336Z,11.90
2018-11-07T08:53:38.905Z,12.00
2018-11-07T08:56:07.592Z,12.00
2018-11-07T08:58:36.362Z,12.00
2018-11-07T09:01:05.044Z,12.00
2018-11-07T09:03:33.634Z,12.10
2018-11-07T09:06:02.221Z,12.30
2018-11-07T09:08:30.821Z,12.40
2018-11-07T09:10:59.520Z,12.40
2018-11-07T09:13:28.125Z,12.50
2018-11-07T09:15:56.737Z,12.60
2018-11-07T09:18:25.340Z,12.70
2018-11-07T09:20:54.172Z,12.90
2018-11-07T09:23:22.799Z,13.00
2018-11-07T09:25:51.389Z,13.10
2018-11-07T09:28:20.064Z,13.20
2018-11-07T09:30:48.710Z,13.30
2018-11-07T09:33:17.597Z,13.30
2018-11-07T09:35:46.328Z,13.30
2018-11-07T09:38:15.001Z,13.40
2018-11-07T09:40:43.604Z,13.40
2018-11-07T09:43:12.290Z,13.40
2018-11-07T09:45:40.959Z,13.40
2018-11-07T09:48:09.696Z,13.50
2018-11-07T09:50:38.120Z,13.70
2018-11-07T09:53:06.579Z,13.70
2018-11-07T09:55:35.159Z,13.80
2018-11-07T09:58:03.768Z,13.80
2018-11-07T10:00:32.178Z,13.80
2018-11-07T10:03:00.685Z,13.70
2018-11-07T10:05:29.286Z,13.80
2018-11-07T10:07:57.653Z,13.80
2018-11-07T10:10:26.095Z,13.80
2018-11-07T10:12:54.562Z,13.90
2018-11-07T10:15:23.053Z,13.90
2018-11-07T10:17:51.563Z,14.00
2018-11-07T10:20:22.230Z,13.90
2018-11-07T10:22:51.031Z,13.90
2018-11-07T10:25:19.751Z,13.90
2018-11-07T10:27:48.472Z,14.00
2018-11-07T10:30:18.337Z,14.10
2018-11-07T10:32:47.831Z,14.20
2018-11-07T10:35:16.450Z,14.10
2018-11-07T10:37:52.438Z,14.00
2018-11-07T10:40:22.454Z,13.90
2018-11-07T10:42:51.152Z,13.90
2018-11-07T10:45:19.733Z,14.10
2018-11-07T10:47:49.099Z,14.20
2018-11-07T10:50:18.563Z,14.30
2018-11-07T10:52:47.553Z,14.40
2018-11-07T10:55:16.880Z,14.60
2018-11-07T10:57:45.596Z,14.70
2018-11-07T11:00:20.316Z,14.90
2018-11-07T11:02:54.363Z,15.00
2018-11-07T11:05:23.065Z,15.30
2018-11-07T11:07:51.637Z,15.40
2018-11-07T11:10:20.478Z,15.30
2018-11-07T11:12:49.240Z,15.30
2018-11-07T11:15:17.841Z,15.40
2018-11-07T11:17:46.435Z,15.40
2018-11-07T11:20:14.979Z,15.30
2018-11-07T11:22:43.340Z,15.40
2018-11-07T11:25:11.803Z,15.50
2018-11-07T11:27:40.212Z,15.70
2018-11-07T11:30:09.139Z,15.70
2018-11-07T11:32:37.637Z,15.80
2018-11-07T11:35:07.269Z,15.80
2018-11-07T11:37:35.642Z,15.80
2018-11-07T11:40:04.412Z,15.80
2018-11-07T11:42:33.763Z,15.70
2018-11-07T11:45:02.274Z,15.50
2018-11-07T11:47:30.765Z,15.50
2018-11-07T11:49:59.453Z,15.50
2018-11-07T11:52:28.053Z,15.60
2018-11-07T11:54:56.621Z,15.60
2018-11-07T11:57:25.075Z,15.70
2018-11-07T11:59:54.227Z,15.80
2018-11-07T12:02:22.629Z,15.80
2018-11-07T12:04:51.258Z,15.90
2018-11-07T12:07:19.875Z,15.90
2018-11-07T12:09:48.531Z,15.90
2018-11-07T12:12:17.158Z,16.00
2018-11-07T12:14:45.684Z,16.10
2018-11-07T12:17:14.236Z,16.00
2018-11-07T12:19:42.898Z,16.10
2018-11-07T12:22:11.493Z,16.20
2018-11-07T12:24:40.146Z,16.30
2018-11-07T12:27:08.749Z,16.20
2018-11-07T12:29:37.364Z,16.20
2018-11-07T12:32:05.972Z,16.10
2018-11-07T12:34:34.659Z,16.10
2018-11-07T12:37:03.304Z,16.10
2018-11-07T12:39:31.942Z,16.10
2018-11-07T12:42:00.591Z,16.10
2018-11-07T12:44:29.160Z,16.20
2018-11-07T12:46:57.796Z,16.20
2018-11-07T12:49:26.440Z,16.20
2018-11-07T12:51:55.079Z,16.10
2018-11-07T12:54:23.665Z,15.90
2018-11-07T12:56:52.271Z,15.80
2018-11-07T12:59:20.615Z,15.70
2018-11-07T13:01:48.983Z,15.50
2018-11-07T13:04:17.336Z,15.50
2018-11-07T13:06:45.725Z,15.50
2018-11-07T13:09:14.670Z,15.50
2018-11-07T13:11:43.321Z,15.60
2018-11-07T13:14:11.952Z,15.60
2018-11-07T13:16:40.735Z,15.50
2018-11-07T13:19:09.328Z,15.50
2018-11-07T13:21:38.176Z,15.40
2018-11-07T13:24:06.785Z,15.50
2018-11-07T13:26:35.442Z,15.40
2018-11-07T13:29:04.084Z,15.50
2018-11-07T13:31:32.711Z,15.40
2018-11-07T13:34:01.260Z,15.40
2018-11-07T13:36:29.868Z,15.40
2018-11-07T13:38:58.872Z,15.40
2018-11-07T13:41:27.135Z,15.40
2018-11-07T13:43:55.724Z,15.50
2018-11-07T13:46:24.327Z,15.40
2018-11-07T13:48:52.938Z,15.30
2018-11-07T13:51:21.552Z,15.30
2018-11-07T13:53:50.117Z,15.30
2018-11-07T13:56:18.735Z,15.20
2018-11-07T13:58:47.379Z,15.20
2018-11-07T14:01:15.927Z,15.30
2018-11-07T14:03:44.591Z,15.30
2018-11-07T14:06:13.240Z,15.30
2018-11-07T14:08:41.889Z,15.20
2018-11-07T14:11:10.886Z,15.30
2018-11-07T14:13:39.774Z,15.30
2018-11-07T14:16:08.603Z,15.20
2018-11-07T14:18:37.665Z,15.20
2018-11-07T14:21:06.585Z,15.20
2018-11-07T14:23:35.346Z,15.20
2018-11-07T14:26:04.756Z,15.20
2018-11-07T14:28:33.851Z,15.10
2018-11-07T14:31:02.694Z,15.10
2018-11-07T14:33:33.549Z,15.10
2018-11-07T14:36:02.329Z,15.10
2018-11-07T14:38:31.196Z,15.10
2018-11-07T14:41:00.054Z,15.10
2018-11-07T14:43:28.786Z,15.10
2018-11-07T14:45:57.688Z,15.00
2018-11-07T14:48:26.756Z,15.10
2018-11-07T14:51:03.418Z,15.00
2018-11-07T14:53:33.652Z,15.00
2018-11-07T14:56:02.420Z,14.90
2018-11-07T14:58:31.139Z,14.90
2018-11-07T15:00:59.899Z,14.80
2018-11-07T15:03:29.245Z,14.70
2018-11-07T15:05:58.244Z,14.60
2018-11-07T15:08:27.298Z,14.50
2018-11-07T15:10:56.190Z,14.40
2018-11-07T15:13:24.865Z,14.30
2018-11-07T15:15:54.453Z,14.30
2018-11-07T15:18:23.516Z,14.20
2018-11-07T15:20:52.368Z,14.10
2018-11-07T15:23:21.527Z,14.00
2018-11-07T15:28:32.947Z,13.80
2018-11-07T15:31:01.701Z,13.80
2018-11-07T15:33:30.566Z,13.70
2018-11-07T15:35:59.469Z,13.60
2018-11-07T15:38:28.318Z,13.50
2018-11-07T15:40:57.271Z,13.50
2018-11-07T15:43:26.096Z,13.40
2018-11-07T15:45:54.998Z,13.30
2018-11-07T15:48:23.798Z,13.30
2018-11-07T15:51:01.104Z,13.30
2018-11-07T15:53:32.983Z,13.30
2018-11-07T15:56:01.864Z,13.20
2018-11-07T15:58:32.034Z,13.10
2018-11-07T16:01:00.841Z,13.00
2018-11-07T16:03:34.891Z,12.90
2018-11-07T16:06:03.647Z,12.80
2018-11-07T16:08:32.556Z,12.90
2018-11-07T16:11:01.391Z,12.90
2018-11-07T16:13:30.135Z,12.80
2018-11-07T16:15:58.815Z,12.70
2018-11-07T16:18:27.631Z,12.70
2018-11-07T16:20:56.341Z,12.70
2018-11-07T16:23:25.153Z,12.70
2018-11-07T16:25:53.894Z,12.60
2018-11-07T16:28:22.606Z,12.50
2018-11-07T16:30:51.215Z,12.40
2018-11-07T16:33:20.312Z,12.40
2018-11-07T16:35:48.976Z,12.40
2018-11-07T16:38:17.616Z,12.30
2018-11-07T16:40:46.701Z,12.30
2018-11-07T16:43:16.221Z,12.20
2018-11-07T16:45:46.347Z,12.20
2018-11-07T16:48:15.356Z,12.10
2018-11-07T16:50:50.646Z,12.00
2018-11-07T16:53:19.454Z,11.90
2018-11-07T16:55:48.326Z,11.80
2018-11-07T16:58:17.107Z,11.80
2018-11-07T17:00:45.806Z,11.70
2018-11-07T17:03:14.580Z,11.70
2018-11-07T17:05:43.905Z,11.60
2018-11-07T17:08:12.564Z,11.60
2018-11-07T17:10:41.148Z,11.50
2018-11-07T17:13:10.059Z,11.50
2018-11-07T17:15:38.908Z,11.60
2018-11-07T17:18:07.709Z,11.70
2018-11-07T17:20:36.466Z,11.70
2018-11-07T17:23:05.185Z,11.70
2018-11-07T17:25:34.194Z,11.70
2018-11-07T17:28:03.518Z,11.80
2018-11-07T17:30:32.406Z,11.80
2018-11-07T17:33:01.215Z,11.70
2018-11-07T17:35:30.359Z,11.70
2018-11-07T17:37:59.189Z,11.60
2018-11-07T17:40:32.072Z,11.50
2018-11-07T17:43:00.882Z,11.50
2018-11-07T17:45:29.646Z,11.50
2018-11-07T17:47:58.735Z,11.50
2018-11-07T17:50:34.270Z,11.40
2018-11-07T17:53:03.015Z,11.40
2018-11-07T17:55:31.742Z,11.30
2018-11-07T17:58:00.675Z,11.20
2018-11-07T18:00:32.423Z,11.10
2018-11-07T18:03:01.412Z,11.10
2018-11-07T18:05:31.324Z,11.10
2018-11-07T18:08:03.177Z,11.00
2018-11-07T18:10:32.142Z,11.00
2018-11-07T18:13:00.990Z,10.90
2018-11-07T18:15:29.841Z,10.80
2018-11-07T18:17:58.814Z,10.80
2018-11-07T18:20:27.765Z,10.70
2018-11-07T18:22:56.599Z,10.70
2018-11-07T18:25:25.419Z,10.70
2018-11-07T18:27:54.795Z,10.80
2018-11-07T18:30:23.603Z,10.70
2018-11-07T18:32:52.474Z,10.70
2018-11-07T18:35:21.399Z,10.80
2018-11-07T18:37:50.291Z,10.80
2018-11-07T18:40:21.249Z,10.90
2018-11-07T18:42:51.026Z,10.90
2018-11-07T18:45:20.019Z,10.80
2018-11-07T18:47:48.896Z,10.80
2018-11-07T18:50:19.124Z,10.70
2018-11-07T18:52:47.962Z,10.70
2018-11-07T18:55:18.835Z,10.60
2018-11-07T18:57:48.515Z,10.50
2018-11-07T19:00:19.129Z,10.50
2018-11-07T19:02:48.611Z,10.40
2018-11-07T19:05:17.599Z,10.30
2018-11-07T19:07:46.508Z,10.20
2018-11-07T19:10:18.042Z,10.30
2018-11-07T19:12:47.542Z,10.20
2018-11-07T19:15:17.314Z,10.10
2018-11-07T19:17:48.341Z,10.10
2018-11-07T19:20:17.816Z,10.20
2018-11-07T19:22:46.726Z,10.20
2018-11-07T19:25:16.896Z,10.10
2018-11-07T19:27:45.766Z,10.10
2018-11-07T19:30:16.932Z,10.20
2018-11-07T19:32:46.850Z,10.20
2018-11-07T19:35:17.517Z,10.20
2018-11-07T19:37:47.085Z,10.20
2018-11-07T19:40:18.674Z,10.20
2018-11-07T19:42:47.686Z,10.10
2018-11-07T19:45:17.784Z,10.10
2018-11-07T19:47:52.592Z,10.00
2018-11-07T19:50:22.120Z,10.00
2018-11-07T19:52:51.502Z,10.10
2018-11-07T19:55:22.486Z,10.10
2018-11-07T19:57:57.274Z,10.10
2018-11-07T20:00:26.204Z,10.00
2018-11-07T20:02:55.146Z,10.00
2018-11-07T20:05:24.120Z,10.00
2018-11-07T20:07:53.141Z,9.90
2018-11-07T20:10:22.609Z,9.90
2018-11-07T20:12:51.123Z,9.90
2018-11-07T20:15:20.368Z,9.90
2018-11-07T20:17:49.171Z,9.90
2018-11-07T20:20:17.694Z,10.00
2018-11-07T20:22:46.179Z,9.90
2018-11-07T20:25:15.080Z,9.90
2018-11-07T20:27:44.034Z,10.10
2018-11-07T20:30:13.873Z,10.10
2018-11-07T20:32:42.429Z,10.10
2018-11-07T20:35:12.420Z,10.10
2018-11-07T20:37:41.010Z,10.00
2018-11-07T20:40:11.765Z,9.90
2018-11-07T20:42:40.263Z,10.00
2018-11-07T20:45:09.520Z,10.10
2018-11-07T20:47:38.464Z,10.00
2018-11-07T20:50:09.025Z,9.90
2018-11-07T20:52:37.831Z,9.80
2018-11-07T20:55:06.311Z,9.70
2018-11-07T20:57:35.210Z,9.80
2018-11-07T21:00:03.788Z,9.90
2018-11-07T21:02:32.317Z,10.20
2018-11-07T21:05:00.744Z,10.90
2018-11-07T21:07:29.364Z,10.90
2018-11-07T21:09:58.076Z,11.00
2018-11-07T21:12:26.751Z,11.20
2018-11-07T21:14:56.515Z,11.00
2018-11-07T21:17:25.196Z,10.90
2018-11-07T21:19:53.947Z,11.30
2018-11-07T21:22:22.738Z,11.60
2018-11-07T21:24:51.472Z,11.30
2018-11-07T21:27:20.201Z,11.40
2018-11-07T21:29:48.850Z,11.30
2018-11-07T21:32:17.494Z,11.20
2018-11-07T21:34:46.192Z,10.90
2018-11-07T21:37:14.864Z,10.70
2018-11-07T21:39:43.564Z,10.70
2018-11-07T21:42:12.948Z,11.10
2018-11-07T21:44:41.580Z,11.00
2018-11-07T21:47:10.300Z,11.10
2018-11-07T21:49:38.938Z,11.30
2018-11-07T21:52:07.628Z,12.10
2018-11-07T21:54:36.375Z,11.70
2018-11-07T21:57:05.062Z,11.20
2018-11-07T21:59:33.673Z,11.20
2018-11-07T22:02:02.311Z,11.50
2018-11-07T22:04:31.034Z,11.90
2018-11-07T22:06:59.766Z,11.90
2018-11-07T22:09:28.491Z,11.40
2018-11-07T22:11:57.248Z,11.30
2018-11-07T22:14:25.895Z,11.80
2018-11-07T22:16:54.514Z,12.30
2018-11-07T22:19:23.187Z,13.10
2018-11-07T22:21:52.055Z,12.40
2018-11-07T22:24:20.867Z,11.80
2018-11-07T22:26:49.565Z,12.20
2018-11-07T22:29:18.603Z,12.40
2018-11-07T22:31:47.364Z,13.20
2018-11-07T22:34:15.975Z,12.50
2018-11-07T22:36:44.620Z,11.90
2018-11-07T22:39:14.220Z,11.30
2018-11-07T22:41:43.700Z,10.80
2018-11-07T22:44:12.362Z,10.40
2018-11-07T22:46:41.056Z,10.10
2018-11-07T22:49:10.551Z,9.90
2018-11-07T22:51:39.176Z,10.50
2018-11-07T22:54:07.822Z,11.00
2018-11-07T22:56:36.472Z,11.40
2018-11-07T22:59:05.337Z,12.00
2018-11-07T23:01:40.710Z,12.20
2018-11-07T23:04:09.514Z,12.70
2018-11-07T23:06:38.641Z,13.10
2018-11-07T23:09:09.363Z,12.30
2018-11-07T23:11:40.240Z,11.60
2018-11-07T23:14:10.350Z,11.40
2018-11-07T23:16:39.836Z,11.60
2018-11-07T23:19:08.706Z,11.70
2018-11-07T23:21:37.372Z,11.30
2018-11-07T23:24:06.539Z,11.30
2018-11-07T23:26:35.339Z,11.40
2018-11-07T23:29:03.733Z,11.30
2018-11-07T23:31:32.119Z,11.20
2018-11-07T23:34:01.128Z,11.50
2018-11-07T23:36:30.000Z,11.40
2018-11-07T23:38:58.456Z,11.70
2018-11-07T23:41:26.840Z,11.60
2018-11-07T23:43:55.225Z,11.60
2018-11-07T23:46:23.708Z,11.40
2018-11-07T23:48:52.046Z,11.40
2018-11-07T23:51:20.688Z,11.20
2018-11-07T23:53:49.034Z,10.80
2018-11-07T23:56:19.245Z,10.50
2018-11-07T23:58:47.929Z,10.80
